sensor_id;sensor_type;location;lat;lon;timestamp;P1;durP1;ratioP1;P2;durP2;ratioP2
70505;SDS011;58032;49.820;6.274;2022-12-07T00:01:30;14.18;;;5.25;;
70505;SDS011;58032;49.820;6.274;2022-12-07T00:04:00;14.25;;;5.38;;
70505;SDS011;58032;49.820;6.274;2022-12-07T00:06:35;17.15;;;6.20;;
70505;SDS011;58032;49.820;6.274;2022-12-07T00:09:04;14.27;;;5.78;;
70505;SDS011;58032;49.820;6.274;2022-12-07T00:11:32;15.43;;;6.27;;
70505;SDS011;58032;49.820;6.274;2022-12-07T00:14:00;14.43;;;5.60;;
70505;SDS011;58032;49.820;6.274;2022-12-07T00:16:30;16.63;;;5.78;;
70505;SDS011;58032;49.820;6.274;2022-12-07T00:18:58;13.65;;;5.05;;
70505;SDS011;58032;49.820;6.274;2022-12-07T00:21:32;18.75;;;6.53;;
70505;SDS011;58032;49.820;6.274;2022-12-07T00:24:02;17.90;;;6.40;;
70505;SDS011;58032;49.820;6.274;2022-12-07T00:26:31;15.05;;;6.47;;
70505;SDS011;58032;49.820;6.274;2022-12-07T00:29:01;18.48;;;6.25;;
70505;SDS011;58032;49.820;6.274;2022-12-07T00:31:34;17.52;;;6.68;;
70505;SDS011;58032;49.820;6.274;2022-12-07T00:34:05;17.42;;;6.90;;
70505;SDS011;58032;49.820;6.274;2022-12-07T00:36:33;16.00;;;6.30;;
70505;SDS011;58032;49.820;6.274;2022-12-07T00:39:00;16.30;;;6.32;;
70505;SDS011;58032;49.820;6.274;2022-12-07T00:41:27;13.00;;;5.22;;
70505;SDS011;58032;49.820;6.274;2022-12-07T00:43:55;15.38;;;5.15;;
70505;SDS011;58032;49.820;6.274;2022-12-07T00:46:22;15.70;;;5.82;;
70505;SDS011;58032;49.820;6.274;2022-12-07T00:48:49;12.33;;;4.77;;
70505;SDS011;58032;49.820;6.274;2022-12-07T00:51:18;15.23;;;5.97;;
70505;SDS011;58032;49.820;6.274;2022-12-07T00:53:47;15.85;;;5.78;;
70505;SDS011;58032;49.820;6.274;2022-12-07T00:56:20;15.40;;;5.90;;
70505;SDS011;58032;49.820;6.274;2022-12-07T00:58:56;16.00;;;5.90;;
70505;SDS011;58032;49.820;6.274;2022-12-07T01:01:29;18.60;;;6.10;;
70505;SDS011;58032;49.820;6.274;2022-12-07T01:03:58;15.57;;;5.65;;
70505;SDS011;58032;49.820;6.274;2022-12-07T01:06:25;16.70;;;6.15;;
70505;SDS011;58032;49.820;6.274;2022-12-07T01:08:52;17.75;;;6.65;;
70505;SDS011;58032;49.820;6.274;2022-12-07T01:11:24;18.52;;;7.22;;
70505;SDS011;58032;49.820;6.274;2022-12-07T01:13:54;21.17;;;6.63;;
70505;SDS011;58032;49.820;6.274;2022-12-07T01:16:23;15.85;;;5.70;;
70505;SDS011;58032;49.820;6.274;2022-12-07T01:18:53;19.73;;;7.00;;
70505;SDS011;58032;49.820;6.274;2022-12-07T01:21:23;15.48;;;5.40;;
70505;SDS011;58032;49.820;6.274;2022-12-07T01:23:56;17.85;;;6.20;;
70505;SDS011;58032;49.820;6.274;2022-12-07T01:26:24;20.57;;;6.53;;
70505;SDS011;58032;49.820;6.274;2022-12-07T01:28:52;17.35;;;6.40;;
70505;SDS011;58032;49.820;6.274;2022-12-07T01:31:21;13.02;;;5.50;;
70505;SDS011;58032;49.820;6.274;2022-12-07T01:33:52;12.23;;;4.97;;
70505;SDS011;58032;49.820;6.274;2022-12-07T01:36:27;15.18;;;5.85;;
70505;SDS011;58032;49.820;6.274;2022-12-07T01:38:57;13.23;;;4.53;;
70505;SDS011;58032;49.820;6.274;2022-12-07T01:41:27;17.50;;;6.50;;
70505;SDS011;58032;49.820;6.274;2022-12-07T01:44:10;19.55;;;6.90;;
70505;SDS011;58032;49.820;6.274;2022-12-07T01:46:44;14.82;;;5.35;;
70505;SDS011;58032;49.820;6.274;2022-12-07T01:49:32;17.25;;;6.07;;
70505;SDS011;58032;49.820;6.274;2022-12-07T01:52:08;12.93;;;3.97;;
70505;SDS011;58032;49.820;6.274;2022-12-07T01:54:42;17.15;;;6.05;;
70505;SDS011;58032;49.820;6.274;2022-12-07T01:57:10;15.55;;;5.72;;
70505;SDS011;58032;49.820;6.274;2022-12-07T01:59:40;15.68;;;6.22;;
70505;SDS011;58032;49.820;6.274;2022-12-07T02:02:11;16.23;;;5.40;;
70505;SDS011;58032;49.820;6.274;2022-12-07T02:04:54;10.63;;;4.90;;
70505;SDS011;58032;49.820;6.274;2022-12-07T02:07:24;13.48;;;4.15;;
70505;SDS011;58032;49.820;6.274;2022-12-07T02:09:53;12.40;;;4.72;;
70505;SDS011;58032;49.820;6.274;2022-12-07T02:12:20;16.67;;;6.38;;
70505;SDS011;58032;49.820;6.274;2022-12-07T02:14:50;18.38;;;6.30;;
70505;SDS011;58032;49.820;6.274;2022-12-07T02:17:20;15.10;;;6.00;;
70505;SDS011;58032;49.820;6.274;2022-12-07T02:25:39;15.77;;;5.43;;
70505;SDS011;58032;49.820;6.274;2022-12-07T02:30:58;10.10;;;4.90;;
70505;SDS011;58032;49.820;6.274;2022-12-07T02:33:43;17.92;;;6.53;;
70505;SDS011;58032;49.820;6.274;2022-12-07T02:36:25;13.60;;;5.95;;
70505;SDS011;58032;49.820;6.274;2022-12-07T02:39:02;13.93;;;5.07;;
70505;SDS011;58032;49.820;6.274;2022-12-07T02:41:48;17.23;;;5.43;;
70505;SDS011;58032;49.820;6.274;2022-12-07T02:44:20;14.40;;;6.13;;
70505;SDS011;58032;49.820;6.274;2022-12-07T02:46:54;17.00;;;6.15;;
70505;SDS011;58032;49.820;6.274;2022-12-07T02:49:24;17.25;;;6.53;;
70505;SDS011;58032;49.820;6.274;2022-12-07T02:51:53;15.95;;;6.00;;
70505;SDS011;58032;49.820;6.274;2022-12-07T02:54:21;14.65;;;5.15;;
70505;SDS011;58032;49.820;6.274;2022-12-07T02:57:05;15.40;;;5.33;;
70505;SDS011;58032;49.820;6.274;2022-12-07T02:59:57;17.80;;;5.57;;
70505;SDS011;58032;49.820;6.274;2022-12-07T03:02:38;15.80;;;4.80;;
70505;SDS011;58032;49.820;6.274;2022-12-07T03:05:24;18.00;;;6.90;;
70505;SDS011;58032;49.820;6.274;2022-12-07T03:10:29;16.50;;;6.67;;
70505;SDS011;58032;49.820;6.274;2022-12-07T03:13:09;20.63;;;7.38;;
70505;SDS011;58032;49.820;6.274;2022-12-07T03:15:53;15.73;;;6.45;;
70505;SDS011;58032;49.820;6.274;2022-12-07T03:18:29;17.65;;;6.63;;
70505;SDS011;58032;49.820;6.274;2022-12-07T03:21:01;15.65;;;6.30;;
70505;SDS011;58032;49.820;6.274;2022-12-07T03:23:31;19.53;;;6.70;;
70505;SDS011;58032;49.820;6.274;2022-12-07T03:26:01;18.50;;;6.65;;
70505;SDS011;58032;49.820;6.274;2022-12-07T03:28:31;17.40;;;5.78;;
70505;SDS011;58032;49.820;6.274;2022-12-07T03:33:46;18.42;;;5.47;;
70505;SDS011;58032;49.820;6.274;2022-12-07T03:36:21;16.53;;;5.73;;
70505;SDS011;58032;49.820;6.274;2022-12-07T03:42:01;14.05;;;5.10;;
70505;SDS011;58032;49.820;6.274;2022-12-07T03:44:32;11.77;;;4.45;;
70505;SDS011;58032;49.820;6.274;2022-12-07T03:54:56;15.80;;;5.95;;
70505;SDS011;58032;49.820;6.274;2022-12-07T03:57:27;17.40;;;6.38;;
70505;SDS011;58032;49.820;6.274;2022-12-07T03:59:56;15.23;;;5.53;;
70505;SDS011;58032;49.820;6.274;2022-12-07T04:02:25;15.63;;;5.97;;
70505;SDS011;58032;49.820;6.274;2022-12-07T04:04:54;18.77;;;5.70;;
70505;SDS011;58032;49.820;6.274;2022-12-07T04:07:22;14.88;;;5.95;;
70505;SDS011;58032;49.820;6.274;2022-12-07T04:09:49;13.40;;;5.10;;
70505;SDS011;58032;49.820;6.274;2022-12-07T04:12:16;12.40;;;4.60;;
70505;SDS011;58032;49.820;6.274;2022-12-07T04:14:43;15.00;;;5.53;;
70505;SDS011;58032;49.820;6.274;2022-12-07T04:17:09;18.75;;;5.75;;
70505;SDS011;58032;49.820;6.274;2022-12-07T04:19:36;13.15;;;5.15;;
70505;SDS011;58032;49.820;6.274;2022-12-07T04:22:03;14.65;;;5.80;;
70505;SDS011;58032;49.820;6.274;2022-12-07T04:24:31;14.30;;;5.43;;
70505;SDS011;58032;49.820;6.274;2022-12-07T04:26:59;16.53;;;5.90;;
70505;SDS011;58032;49.820;6.274;2022-12-07T04:29:26;17.02;;;5.50;;
70505;SDS011;58032;49.820;6.274;2022-12-07T04:31:53;14.80;;;6.18;;
70505;SDS011;58032;49.820;6.274;2022-12-07T04:34:20;12.80;;;4.68;;
70505;SDS011;58032;49.820;6.274;2022-12-07T04:36:47;16.48;;;5.85;;
70505;SDS011;58032;49.820;6.274;2022-12-07T04:39:35;14.67;;;5.50;;
70505;SDS011;58032;49.820;6.274;2022-12-07T04:42:01;12.57;;;5.15;;
70505;SDS011;58032;49.820;6.274;2022-12-07T04:44:39;10.77;;;4.32;;
70505;SDS011;58032;49.820;6.274;2022-12-07T04:47:24;13.35;;;4.88;;
70505;SDS011;58032;49.820;6.274;2022-12-07T04:50:12;14.18;;;4.95;;
70505;SDS011;58032;49.820;6.274;2022-12-07T04:52:57;12.67;;;4.70;;
70505;SDS011;58032;49.820;6.274;2022-12-07T04:55:24;14.73;;;4.85;;
70505;SDS011;58032;49.820;6.274;2022-12-07T04:57:51;14.52;;;5.40;;
70505;SDS011;58032;49.820;6.274;2022-12-07T05:00:18;17.48;;;5.47;;
70505;SDS011;58032;49.820;6.274;2022-12-07T05:02:45;11.80;;;3.95;;
70505;SDS011;58032;49.820;6.274;2022-12-07T05:05:12;12.43;;;4.30;;
70505;SDS011;58032;49.820;6.274;2022-12-07T05:07:39;13.15;;;5.00;;
70505;SDS011;58032;49.820;6.274;2022-12-07T05:10:06;12.02;;;4.10;;
70505;SDS011;58032;49.820;6.274;2022-12-07T05:12:33;14.93;;;5.43;;
70505;SDS011;58032;49.820;6.274;2022-12-07T05:15:00;16.38;;;5.45;;
70505;SDS011;58032;49.820;6.274;2022-12-07T05:17:27;13.73;;;5.63;;
70505;SDS011;58032;49.820;6.274;2022-12-07T05:19:53;19.52;;;5.32;;
70505;SDS011;58032;49.820;6.274;2022-12-07T05:22:20;16.10;;;5.80;;
70505;SDS011;58032;49.820;6.274;2022-12-07T05:24:47;16.10;;;5.85;;
70505;SDS011;58032;49.820;6.274;2022-12-07T05:27:14;15.25;;;5.43;;
70505;SDS011;58032;49.820;6.274;2022-12-07T05:29:41;14.30;;;5.80;;
70505;SDS011;58032;49.820;6.274;2022-12-07T05:32:08;19.15;;;6.20;;
70505;SDS011;58032;49.820;6.274;2022-12-07T05:34:35;12.23;;;5.30;;
70505;SDS011;58032;49.820;6.274;2022-12-07T05:37:02;14.90;;;5.68;;
70505;SDS011;58032;49.820;6.274;2022-12-07T05:39:28;14.05;;;4.75;;
70505;SDS011;58032;49.820;6.274;2022-12-07T05:41:56;16.00;;;5.50;;
70505;SDS011;58032;49.820;6.274;2022-12-07T05:44:42;10.60;;;4.13;;
70505;SDS011;58032;49.820;6.274;2022-12-07T05:47:11;12.88;;;4.93;;
70505;SDS011;58032;49.820;6.274;2022-12-07T05:49:39;11.35;;;4.15;;
70505;SDS011;58032;49.820;6.274;2022-12-07T05:52:06;7.30;;;3.28;;
70505;SDS011;58032;49.820;6.274;2022-12-07T05:54:34;9.37;;;3.37;;
70505;SDS011;58032;49.820;6.274;2022-12-07T05:57:01;12.98;;;5.00;;
70505;SDS011;58032;49.820;6.274;2022-12-07T05:59:27;14.00;;;4.70;;
70505;SDS011;58032;49.820;6.274;2022-12-07T06:02:03;12.02;;;3.33;;
70505;SDS011;58032;49.820;6.274;2022-12-07T06:04:33;11.82;;;4.43;;
70505;SDS011;58032;49.820;6.274;2022-12-07T06:07:01;11.30;;;4.07;;
70505;SDS011;58032;49.820;6.274;2022-12-07T06:09:29;14.57;;;5.07;;
70505;SDS011;58032;49.820;6.274;2022-12-07T06:11:56;16.15;;;6.00;;
70505;SDS011;58032;49.820;6.274;2022-12-07T06:15:01;19.58;;;5.25;;
70505;SDS011;58032;49.820;6.274;2022-12-07T06:17:28;14.23;;;5.35;;
70505;SDS011;58032;49.820;6.274;2022-12-07T06:19:54;14.80;;;6.10;;
70505;SDS011;58032;49.820;6.274;2022-12-07T06:22:21;12.18;;;5.10;;
70505;SDS011;58032;49.820;6.274;2022-12-07T06:24:48;16.35;;;5.05;;
70505;SDS011;58032;49.820;6.274;2022-12-07T06:27:15;12.80;;;4.68;;
70505;SDS011;58032;49.820;6.274;2022-12-07T06:29:42;13.48;;;4.97;;
70505;SDS011;58032;49.820;6.274;2022-12-07T06:32:09;11.63;;;4.70;;
70505;SDS011;58032;49.820;6.274;2022-12-07T06:34:54;15.45;;;4.90;;
70505;SDS011;58032;49.820;6.274;2022-12-07T06:37:21;12.32;;;4.45;;
70505;SDS011;58032;49.820;6.274;2022-12-07T06:39:48;13.50;;;4.85;;
70505;SDS011;58032;49.820;6.274;2022-12-07T06:42:14;15.23;;;4.78;;
70505;SDS011;58032;49.820;6.274;2022-12-07T06:44:41;14.63;;;4.00;;
70505;SDS011;58032;49.820;6.274;2022-12-07T06:47:08;12.73;;;4.22;;
70505;SDS011;58032;49.820;6.274;2022-12-07T06:49:55;7.60;;;2.38;;
70505;SDS011;58032;49.820;6.274;2022-12-07T06:52:22;14.25;;;4.60;;
70505;SDS011;58032;49.820;6.274;2022-12-07T06:54:49;13.40;;;5.28;;
70505;SDS011;58032;49.820;6.274;2022-12-07T06:57:16;12.30;;;4.07;;
70505;SDS011;58032;49.820;6.274;2022-12-07T06:59:43;13.85;;;4.57;;
70505;SDS011;58032;49.820;6.274;2022-12-07T07:02:10;19.02;;;5.68;;
70505;SDS011;58032;49.820;6.274;2022-12-07T07:04:37;16.67;;;6.22;;
70505;SDS011;58032;49.820;6.274;2022-12-07T07:07:04;14.30;;;5.40;;
70505;SDS011;58032;49.820;6.274;2022-12-07T07:09:30;14.53;;;5.17;;
70505;SDS011;58032;49.820;6.274;2022-12-07T07:11:57;12.48;;;4.63;;
70505;SDS011;58032;49.820;6.274;2022-12-07T07:14:24;12.65;;;4.57;;
70505;SDS011;58032;49.820;6.274;2022-12-07T07:16:51;16.67;;;5.18;;
70505;SDS011;58032;49.820;6.274;2022-12-07T07:19:18;14.85;;;5.40;;
70505;SDS011;58032;49.820;6.274;2022-12-07T07:21:45;14.33;;;4.27;;
70505;SDS011;58032;49.820;6.274;2022-12-07T07:24:12;11.35;;;3.78;;
70505;SDS011;58032;49.820;6.274;2022-12-07T07:26:39;6.00;;;2.15;;
70505;SDS011;58032;49.820;6.274;2022-12-07T07:29:05;8.27;;;2.75;;
70505;SDS011;58032;49.820;6.274;2022-12-07T07:31:32;11.50;;;4.57;;
70505;SDS011;58032;49.820;6.274;2022-12-07T07:34:01;12.10;;;4.53;;
70505;SDS011;58032;49.820;6.274;2022-12-07T07:36:28;9.90;;;4.38;;
70505;SDS011;58032;49.820;6.274;2022-12-07T07:38:55;8.63;;;3.30;;
70505;SDS011;58032;49.820;6.274;2022-12-07T07:41:22;13.80;;;4.90;;
70505;SDS011;58032;49.820;6.274;2022-12-07T07:43:49;9.07;;;3.65;;
70505;SDS011;58032;49.820;6.274;2022-12-07T07:46:15;10.23;;;3.07;;
70505;SDS011;58032;49.820;6.274;2022-12-07T07:48:42;8.80;;;3.15;;
70505;SDS011;58032;49.820;6.274;2022-12-07T07:51:09;10.85;;;3.25;;
70505;SDS011;58032;49.820;6.274;2022-12-07T07:53:36;8.10;;;2.60;;
70505;SDS011;58032;49.820;6.274;2022-12-07T07:56:03;5.63;;;2.63;;
70505;SDS011;58032;49.820;6.274;2022-12-07T07:58:30;7.67;;;3.13;;
70505;SDS011;58032;49.820;6.274;2022-12-07T08:01:02;8.80;;;3.25;;
70505;SDS011;58032;49.820;6.274;2022-12-07T08:03:30;9.10;;;3.28;;
70505;SDS011;58032;49.820;6.274;2022-12-07T08:05:57;9.35;;;2.72;;
70505;SDS011;58032;49.820;6.274;2022-12-07T08:08:24;7.68;;;1.67;;
70505;SDS011;58032;49.820;6.274;2022-12-07T08:10:52;9.10;;;3.00;;
70505;SDS011;58032;49.820;6.274;2022-12-07T08:13:18;4.32;;;1.45;;
70505;SDS011;58032;49.820;6.274;2022-12-07T08:15:46;8.70;;;2.70;;
70505;SDS011;58032;49.820;6.274;2022-12-07T08:18:14;8.00;;;2.45;;
70505;SDS011;58032;49.820;6.274;2022-12-07T08:20:42;9.40;;;3.00;;
70505;SDS011;58032;49.820;6.274;2022-12-07T08:23:09;7.10;;;2.40;;
70505;SDS011;58032;49.820;6.274;2022-12-07T08:25:37;9.35;;;2.95;;
70505;SDS011;58032;49.820;6.274;2022-12-07T08:28:04;8.40;;;2.40;;
70505;SDS011;58032;49.820;6.274;2022-12-07T08:30:32;8.27;;;3.08;;
70505;SDS011;58032;49.820;6.274;2022-12-07T08:32:59;8.98;;;2.80;;
70505;SDS011;58032;49.820;6.274;2022-12-07T08:35:26;6.20;;;2.03;;
70505;SDS011;58032;49.820;6.274;2022-12-07T08:37:52;8.02;;;3.00;;
70505;SDS011;58032;49.820;6.274;2022-12-07T08:40:19;9.93;;;3.08;;
70505;SDS011;58032;49.820;6.274;2022-12-07T08:42:50;7.65;;;1.88;;
70505;SDS011;58032;49.820;6.274;2022-12-07T08:45:18;10.00;;;3.40;;
70505;SDS011;58032;49.820;6.274;2022-12-07T08:47:54;8.50;;;3.00;;
70505;SDS011;58032;49.820;6.274;2022-12-07T08:50:25;7.13;;;1.63;;
70505;SDS011;58032;49.820;6.274;2022-12-07T08:52:53;11.43;;;3.28;;
70505;SDS011;58032;49.820;6.274;2022-12-07T08:55:23;9.98;;;3.40;;
70505;SDS011;58032;49.820;6.274;2022-12-07T08:57:50;4.25;;;2.10;;
70505;SDS011;58032;49.820;6.274;2022-12-07T09:00:17;11.90;;;2.83;;
70505;SDS011;58032;49.820;6.274;2022-12-07T09:02:45;11.00;;;3.33;;
70505;SDS011;58032;49.820;6.274;2022-12-07T09:05:14;11.13;;;3.88;;
70505;SDS011;58032;49.820;6.274;2022-12-07T09:07:44;7.40;;;3.17;;
70505;SDS011;58032;49.820;6.274;2022-12-07T09:10:15;9.65;;;3.20;;
70505;SDS011;58032;49.820;6.274;2022-12-07T09:12:42;11.50;;;3.60;;
70505;SDS011;58032;49.820;6.274;2022-12-07T09:15:09;7.38;;;2.60;;
70505;SDS011;58032;49.820;6.274;2022-12-07T09:17:36;12.15;;;3.70;;
70505;SDS011;58032;49.820;6.274;2022-12-07T09:20:04;10.27;;;3.25;;
70505;SDS011;58032;49.820;6.274;2022-12-07T09:22:32;9.27;;;2.80;;
70505;SDS011;58032;49.820;6.274;2022-12-07T09:24:59;6.93;;;2.80;;
70505;SDS011;58032;49.820;6.274;2022-12-07T09:27:27;13.93;;;3.72;;
70505;SDS011;58032;49.820;6.274;2022-12-07T09:29:54;12.80;;;4.25;;
70505;SDS011;58032;49.820;6.274;2022-12-07T09:32:22;11.80;;;3.13;;
70505;SDS011;58032;49.820;6.274;2022-12-07T09:34:49;9.20;;;2.38;;
70505;SDS011;58032;49.820;6.274;2022-12-07T09:37:16;8.97;;;2.50;;
70505;SDS011;58032;49.820;6.274;2022-12-07T09:39:43;11.70;;;3.30;;
70505;SDS011;58032;49.820;6.274;2022-12-07T09:42:56;9.45;;;2.83;;
70505;SDS011;58032;49.820;6.274;2022-12-07T09:45:11;10.55;;;3.15;;
70505;SDS011;58032;49.820;6.274;2022-12-07T09:47:41;13.63;;;4.07;;
70505;SDS011;58032;49.820;6.274;2022-12-07T09:50:18;9.20;;;2.03;;
70505;SDS011;58032;49.820;6.274;2022-12-07T09:52:48;7.88;;;2.38;;
70505;SDS011;58032;49.820;6.274;2022-12-07T09:55:19;3.60;;;1.02;;
70505;SDS011;58032;49.820;6.274;2022-12-07T09:57:51;10.57;;;3.20;;
70505;SDS011;58032;49.820;6.274;2022-12-07T10:00:20;9.68;;;2.97;;
70505;SDS011;58032;49.820;6.274;2022-12-07T10:07:57;7.03;;;3.10;;
70505;SDS011;58032;49.820;6.274;2022-12-07T10:10:25;7.20;;;2.17;;
70505;SDS011;58032;49.820;6.274;2022-12-07T10:13:04;9.02;;;2.92;;
70505;SDS011;58032;49.820;6.274;2022-12-07T10:15:47;7.63;;;2.30;;
70505;SDS011;58032;49.820;6.274;2022-12-07T10:18:26;10.02;;;3.03;;
70505;SDS011;58032;49.820;6.274;2022-12-07T10:23:35;8.07;;;2.90;;
70505;SDS011;58032;49.820;6.274;2022-12-07T10:32:21;9.20;;;2.80;;
70505;SDS011;58032;49.820;6.274;2022-12-07T10:35:20;11.35;;;3.00;;
70505;SDS011;58032;49.820;6.274;2022-12-07T10:37:48;7.95;;;2.60;;
70505;SDS011;58032;49.820;6.274;2022-12-07T10:43:21;11.03;;;2.13;;
70505;SDS011;58032;49.820;6.274;2022-12-07T10:48:32;9.85;;;2.75;;
70505;SDS011;58032;49.820;6.274;2022-12-07T10:56:34;10.03;;;2.70;;
70505;SDS011;58032;49.820;6.274;2022-12-07T11:07:46;6.72;;;2.00;;
70505;SDS011;58032;49.820;6.274;2022-12-07T11:10:26;2.47;;;0.60;;
70505;SDS011;58032;49.820;6.274;2022-12-07T11:18:24;6.10;;;1.90;;
70505;SDS011;58032;49.820;6.274;2022-12-07T11:24:01;4.53;;;1.57;;
70505;SDS011;58032;49.820;6.274;2022-12-07T11:26:46;4.20;;;1.67;;
70505;SDS011;58032;49.820;6.274;2022-12-07T11:29:28;9.10;;;2.03;;
70505;SDS011;58032;49.820;6.274;2022-12-07T11:32:19;5.53;;;1.88;;
70505;SDS011;58032;49.820;6.274;2022-12-07T11:37:47;4.97;;;1.77;;
70505;SDS011;58032;49.820;6.274;2022-12-07T11:40:24;7.22;;;1.85;;
70505;SDS011;58032;49.820;6.274;2022-12-07T11:42:59;6.43;;;2.03;;
70505;SDS011;58032;49.820;6.274;2022-12-07T11:45:43;5.70;;;1.67;;
70505;SDS011;58032;49.820;6.274;2022-12-07T11:48:18;5.47;;;1.45;;
70505;SDS011;58032;49.820;6.274;2022-12-07T11:50:54;5.47;;;1.43;;
70505;SDS011;58032;49.820;6.274;2022-12-07T11:53:28;6.05;;;1.90;;
70505;SDS011;58032;49.820;6.274;2022-12-07T11:56:01;3.92;;;1.50;;
70505;SDS011;58032;49.820;6.274;2022-12-07T11:58:47;3.78;;;1.33;;
70505;SDS011;58032;49.820;6.274;2022-12-07T12:03:52;4.20;;;1.23;;
70505;SDS011;58032;49.820;6.274;2022-12-07T12:06:24;5.22;;;1.60;;
70505;SDS011;58032;49.820;6.274;2022-12-07T12:14:46;4.88;;;1.50;;
70505;SDS011;58032;49.820;6.274;2022-12-07T12:17:24;4.70;;;1.00;;
70505;SDS011;58032;49.820;6.274;2022-12-07T12:22:45;4.28;;;1.15;;
70505;SDS011;58032;49.820;6.274;2022-12-07T12:25:27;3.70;;;1.10;;
70505;SDS011;58032;49.820;6.274;2022-12-07T12:27:57;3.40;;;0.80;;
70505;SDS011;58032;49.820;6.274;2022-12-07T12:30:33;3.37;;;0.93;;
70505;SDS011;58032;49.820;6.274;2022-12-07T12:33:04;3.80;;;0.98;;
70505;SDS011;58032;49.820;6.274;2022-12-07T12:35:32;3.40;;;1.08;;
70505;SDS011;58032;49.820;6.274;2022-12-07T12:40:59;5.38;;;1.15;;
70505;SDS011;58032;49.820;6.274;2022-12-07T12:43:46;5.07;;;1.37;;
70505;SDS011;58032;49.820;6.274;2022-12-07T12:54:14;6.70;;;1.27;;
70505;SDS011;58032;49.820;6.274;2022-12-07T12:56:53;4.20;;;1.30;;
70505;SDS011;58032;49.820;6.274;2022-12-07T13:02:19;6.95;;;1.33;;
70505;SDS011;58032;49.820;6.274;2022-12-07T13:10:39;8.40;;;1.40;;
70505;SDS011;58032;49.820;6.274;2022-12-07T13:15:42;4.95;;;1.10;;
70505;SDS011;58032;49.820;6.274;2022-12-07T13:26:17;5.03;;;1.33;;
70505;SDS011;58032;49.820;6.274;2022-12-07T13:28:45;5.25;;;1.30;;
70505;SDS011;58032;49.820;6.274;2022-12-07T13:34:01;5.97;;;1.35;;
70505;SDS011;58032;49.820;6.274;2022-12-07T13:36:33;4.77;;;1.43;;
70505;SDS011;58032;49.820;6.274;2022-12-07T13:39:11;4.63;;;1.20;;
70505;SDS011;58032;49.820;6.274;2022-12-07T13:41:44;7.43;;;1.50;;
70505;SDS011;58032;49.820;6.274;2022-12-07T13:44:15;3.97;;;1.30;;
70505;SDS011;58032;49.820;6.274;2022-12-07T13:46:46;5.93;;;1.35;;
70505;SDS011;58032;49.820;6.274;2022-12-07T13:49:18;4.82;;;1.20;;
70505;SDS011;58032;49.820;6.274;2022-12-07T13:51:47;4.17;;;1.10;;
70505;SDS011;58032;49.820;6.274;2022-12-07T13:54:15;5.93;;;1.23;;
70505;SDS011;58032;49.820;6.274;2022-12-07T13:56:42;3.55;;;1.40;;
70505;SDS011;58032;49.820;6.274;2022-12-07T13:59:22;3.13;;;1.05;;
70505;SDS011;58032;49.820;6.274;2022-12-07T14:01:51;5.60;;;1.40;;
70505;SDS011;58032;49.820;6.274;2022-12-07T14:04:33;6.43;;;1.87;;
70505;SDS011;58032;49.820;6.274;2022-12-07T14:07:48;2.70;;;0.95;;
70505;SDS011;58032;49.820;6.274;2022-12-07T14:10:00;4.15;;;1.20;;
70505;SDS011;58032;49.820;6.274;2022-12-07T14:12:29;7.35;;;1.20;;
70505;SDS011;58032;49.820;6.274;2022-12-07T14:14:58;4.75;;;1.10;;
70505;SDS011;58032;49.820;6.274;2022-12-07T14:17:27;3.47;;;1.20;;
70505;SDS011;58032;49.820;6.274;2022-12-07T14:19:55;7.03;;;1.60;;
70505;SDS011;58032;49.820;6.274;2022-12-07T14:22:25;4.10;;;1.42;;
70505;SDS011;58032;49.820;6.274;2022-12-07T14:24:58;5.10;;;0.98;;
70505;SDS011;58032;49.820;6.274;2022-12-07T14:27:30;5.47;;;1.10;;
70505;SDS011;58032;49.820;6.274;2022-12-07T14:30:01;4.57;;;1.20;;
70505;SDS011;58032;49.820;6.274;2022-12-07T14:32:29;6.15;;;1.65;;
70505;SDS011;58032;49.820;6.274;2022-12-07T14:35:01;6.22;;;1.35;;
70505;SDS011;58032;49.820;6.274;2022-12-07T14:37:34;4.85;;;1.00;;
70505;SDS011;58032;49.820;6.274;2022-12-07T14:40:01;4.63;;;1.30;;
70505;SDS011;58032;49.820;6.274;2022-12-07T14:42:29;3.60;;;1.07;;
70505;SDS011;58032;49.820;6.274;2022-12-07T14:44:57;4.68;;;1.15;;
70505;SDS011;58032;49.820;6.274;2022-12-07T14:47:25;4.50;;;1.60;;
70505;SDS011;58032;49.820;6.274;2022-12-07T14:50:13;6.50;;;1.35;;
70505;SDS011;58032;49.820;6.274;2022-12-07T14:52:43;3.90;;;1.20;;
70505;SDS011;58032;49.820;6.274;2022-12-07T14:55:31;6.43;;;1.00;;
70505;SDS011;58032;49.820;6.274;2022-12-07T14:57:58;4.70;;;1.40;;
70505;SDS011;58032;49.820;6.274;2022-12-07T15:00:26;3.95;;;1.17;;
70505;SDS011;58032;49.820;6.274;2022-12-07T15:02:54;5.47;;;1.20;;
70505;SDS011;58032;49.820;6.274;2022-12-07T15:05:22;4.60;;;0.82;;
70505;SDS011;58032;49.820;6.274;2022-12-07T15:07:49;3.50;;;1.20;;
70505;SDS011;58032;49.820;6.274;2022-12-07T15:10:18;4.53;;;1.30;;
70505;SDS011;58032;49.820;6.274;2022-12-07T15:12:49;4.00;;;1.08;;
70505;SDS011;58032;49.820;6.274;2022-12-07T15:15:16;6.57;;;1.30;;
70505;SDS011;58032;49.820;6.274;2022-12-07T15:17:43;4.47;;;1.15;;
70505;SDS011;58032;49.820;6.274;2022-12-07T15:20:14;5.33;;;1.10;;
70505;SDS011;58032;49.820;6.274;2022-12-07T15:22:43;4.97;;;1.50;;
70505;SDS011;58032;49.820;6.274;2022-12-07T15:25:12;5.40;;;1.35;;
70505;SDS011;58032;49.820;6.274;2022-12-07T15:27:40;6.32;;;1.42;;
70505;SDS011;58032;49.820;6.274;2022-12-07T15:30:07;6.65;;;1.50;;
70505;SDS011;58032;49.820;6.274;2022-12-07T15:32:34;5.30;;;1.30;;
70505;SDS011;58032;49.820;6.274;2022-12-07T15:35:01;6.47;;;2.17;;
70505;SDS011;58032;49.820;6.274;2022-12-07T15:37:28;7.93;;;4.68;;
70505;SDS011;58032;49.820;6.274;2022-12-07T15:39:55;6.93;;;2.03;;
70505;SDS011;58032;49.820;6.274;2022-12-07T15:42:22;4.20;;;1.42;;
70505;SDS011;58032;49.820;6.274;2022-12-07T15:44:49;6.53;;;1.57;;
70505;SDS011;58032;49.820;6.274;2022-12-07T15:47:35;6.13;;;1.40;;
70505;SDS011;58032;49.820;6.274;2022-12-07T15:50:15;3.53;;;1.20;;
70505;SDS011;58032;49.820;6.274;2022-12-07T15:52:42;3.55;;;0.98;;
70505;SDS011;58032;49.820;6.274;2022-12-07T15:55:10;4.43;;;1.08;;
70505;SDS011;58032;49.820;6.274;2022-12-07T15:57:37;4.77;;;1.13;;
70505;SDS011;58032;49.820;6.274;2022-12-07T16:00:05;7.53;;;1.38;;
70505;SDS011;58032;49.820;6.274;2022-12-07T16:02:36;4.15;;;1.60;;
70505;SDS011;58032;49.820;6.274;2022-12-07T16:05:05;5.07;;;1.40;;
70505;SDS011;58032;49.820;6.274;2022-12-07T16:07:32;9.27;;;1.60;;
70505;SDS011;58032;49.820;6.274;2022-12-07T16:09:59;5.50;;;1.23;;
70505;SDS011;58032;49.820;6.274;2022-12-07T16:12:25;5.68;;;1.33;;
70505;SDS011;58032;49.820;6.274;2022-12-07T16:14:54;4.87;;;1.40;;
70505;SDS011;58032;49.820;6.274;2022-12-07T16:17:22;6.93;;;1.50;;
70505;SDS011;58032;49.820;6.274;2022-12-07T16:19:50;4.72;;;1.70;;
70505;SDS011;58032;49.820;6.274;2022-12-07T16:22:20;5.63;;;1.30;;
70505;SDS011;58032;49.820;6.274;2022-12-07T16:24:49;6.15;;;2.13;;
70505;SDS011;58032;49.820;6.274;2022-12-07T16:27:18;5.07;;;1.63;;
70505;SDS011;58032;49.820;6.274;2022-12-07T16:29:49;8.57;;;1.83;;
70505;SDS011;58032;49.820;6.274;2022-12-07T16:32:17;4.13;;;1.42;;
70505;SDS011;58032;49.820;6.274;2022-12-07T16:34:46;4.80;;;1.33;;
70505;SDS011;58032;49.820;6.274;2022-12-07T16:37:17;5.95;;;1.20;;
70505;SDS011;58032;49.820;6.274;2022-12-07T16:39:46;7.33;;;1.27;;
70505;SDS011;58032;49.820;6.274;2022-12-07T16:42:16;5.07;;;1.60;;
70505;SDS011;58032;49.820;6.274;2022-12-07T16:44:51;8.68;;;1.80;;
70505;SDS011;58032;49.820;6.274;2022-12-07T16:47:19;4.25;;;1.40;;
70505;SDS011;58032;49.820;6.274;2022-12-07T16:49:48;5.25;;;1.50;;
70505;SDS011;58032;49.820;6.274;2022-12-07T16:52:18;6.50;;;1.70;;
70505;SDS011;58032;49.820;6.274;2022-12-07T16:54:47;5.32;;;1.27;;
70505;SDS011;58032;49.820;6.274;2022-12-07T16:57:16;4.93;;;1.60;;